Time;durP1;ratioP1;P1;durP2;ratioP2;P2;SDS_P1;SDS_P2;PMS_P1;PMS_P2;Temp;Humidity;BMP_temperature;BMP_pressure;BME280_temperature;BME280_humidity;BME280_pressure;Samples;Min_cycle;Max_cycle;Signal;HPM_P1;HPM_P2
2022/10/30 00:00:10;;;;;;;12.70;5.60;;;;;;;15.57;100.00;100944.84;690099;28;1416;-67
2022/10/30 00:00:33;;;;;;;9.00;5.57;;;;;;;15.58;100.00;100945.72;687819;28;1259;-66
2022/10/30 00:00:54;;;;;;;10.30;5.50;;;;;;;15.55;100.00;100946.66;686926;28;4441;-66
2022/10/30 00:01:14;;;;;;;11.03;5.77;;;;;;;15.55;100.00;100954.56;687520;28;1143;-66
2022/10/30 00:01:35;;;;;;;11.65;5.53;;;;;;;15.57;100.00;100949.25;688989;28;948;-66
2022/10/30 00:01:55;;;;;;;9.13;5.30;;;;;;;15.56;100.00;100948.38;688316;28;1231;-66
2022/10/30 00:02:16;;;;;;;10.40;5.70;;;;;;;15.55;100.00;100951.91;690195;28;1262;-67
2022/10/30 00:02:36;;;;;;;10.53;5.70;;;;;;;15.56;100.00;100951.03;692682;28;1195;-66
2022/10/30 00:02:56;;;;;;;10.68;5.68;;;;;;;15.57;100.00;100952.75;690522;28;1208;-66
2022/10/30 00:03:17;;;;;;;10.07;5.53;;;;;;;15.58;100.00;100956.25;687085;28;1357;-66
2022/10/30 00:03:38;;;;;;;10.40;5.20;;;;;;;15.57;100.00;100949.25;687653;28;4311;-66
2022/10/30 00:03:58;;;;;;;9.63;5.20;;;;;;;15.55;100.00;100946.66;690707;28;1222;-66
2022/10/30 00:04:18;;;;;;;9.05;5.43;;;;;;;15.54;100.00;100949.31;690212;28;1416;-66
2022/10/30 00:04:39;;;;;;;10.87;5.50;;;;;;;15.54;100.00;100954.59;690525;28;1496;-66
2022/10/30 00:04:59;;;;;;;11.33;5.70;;;;;;;15.56;100.00;100952.78;693140;28;1240;-67
2022/10/30 00:05:20;;;;;;;9.40;6.03;;;;;;;15.58;100.00;100951.84;692614;28;1242;-66
2022/10/30 00:05:46;;;;;;;10.93;5.80;;;;;;;15.57;100.00;100946.59;693170;28;1397;-66
2022/10/30 00:06:07;;;;;;;10.30;5.68;;;;;;;15.58;100.00;100953.63;692314;28;1246;-66
2022/10/30 00:06:28;;;;;;;10.55;5.35;;;;;;;15.57;100.00;100943.97;692765;28;1297;-66
2022/10/30 00:06:48;;;;;;;11.63;5.30;;;;;;;15.54;100.00;100944.03;692728;28;4521;-66
2022/10/30 00:07:08;;;;;;;11.70;5.37;;;;;;;15.48;100.00;100953.81;693222;28;1183;-66
2022/10/30 00:07:29;;;;;;;10.60;5.43;;;;;;;15.47;100.00;100953.84;693544;28;1270;-66
2022/10/30 00:07:49;;;;;;;11.25;5.47;;;;;;;15.47;100.00;100946.78;692381;28;1321;-67
2022/10/30 00:08:12;;;;;;;11.37;5.40;;;;;;;15.47;100.00;100945.94;693233;28;1379;-65
2022/10/30 00:08:32;;;;;;;12.32;5.60;;;;;;;15.48;100.00;100945.03;691887;28;1135;-66
2022/10/30 00:08:53;;;;;;;10.82;5.30;;;;;;;15.49;100.00;100946.75;689674;28;1270;-64
2022/10/30 00:09:14;;;;;;;10.90;5.53;;;;;;;15.45;100.00;100951.25;687664;28;1343;-66
2022/10/30 00:09:34;;;;;;;9.40;5.28;;;;;;;15.48;100.00;100945.03;687878;28;1066;-67
2022/10/30 00:09:54;;;;;;;10.20;5.40;;;;;;;15.48;100.00;100947.69;687224;28;4474;-66
2022/10/30 00:10:16;;;;;;;10.63;5.57;;;;;;;15.46;100.00;100942.41;688122;28;1132;-66
2022/10/30 00:10:37;;;;;;;10.43;5.22;;;;;;;15.48;100.00;100950.31;687680;28;1231;-67
2022/10/30 00:11:07;;;;;;;10.75;5.55;;;;;;;15.47;100.00;100949.44;691049;28;1251;-67
2022/10/30 00:11:28;;;;;;;10.00;5.30;;;;;;;15.45;100.00;100951.25;693305;28;1509;-66
2022/10/30 00:11:48;;;;;;;9.98;5.13;;;;;;;15.44;100.00;100944.22;689951;28;1262;-66
2022/10/30 00:12:09;;;;;;;10.77;5.45;;;;;;;15.45;100.00;100953.00;690382;28;1305;-65
2022/10/30 00:12:29;;;;;;;9.53;5.17;;;;;;;15.47;100.00;100951.19;692302;28;1238;-66
2022/10/30 00:12:50;;;;;;;9.25;5.60;;;;;;;15.46;100.00;100950.31;692071;28;4345;-66
2022/10/30 00:13:12;;;;;;;9.23;5.50;;;;;;;15.46;100.00;100945.03;690826;28;1227;-66
2022/10/30 00:13:32;;;;;;;9.25;5.50;;;;;;;15.45;100.00;100942.44;691590;28;1041;-66
2022/10/30 00:13:53;;;;;;;9.50;5.50;;;;;;;15.46;100.00;100944.19;693414;28;1229;-67
2022/10/30 00:14:13;;;;;;;10.23;5.27;;;;;;;15.48;100.00;100955.59;692903;28;1304;-66
2022/10/30 00:14:34;;;;;;;12.45;5.10;;;;;;;15.49;100.00;100944.13;693104;28;1245;-66
2022/10/30 00:14:54;;;;;;;11.30;5.30;;;;;;;15.49;100.00;100946.75;693503;28;1238;-66
2022/10/30 00:15:14;;;;;;;10.63;5.30;;;;;;;15.48;100.00;100945.03;693585;28;1257;-65
2022/10/30 00:15:35;;;;;;;9.77;5.40;;;;;;;15.47;100.00;100953.84;690443;28;1235;-66
2022/10/30 00:15:56;;;;;;;10.85;5.40;;;;;;;15.51;100.00;100950.25;689967;28;4375;-66
2022/10/30 00:16:16;;;;;;;10.07;5.22;;;;;;;15.49;100.00;100947.66;689480;28;1238;-66
2022/10/30 00:16:37;;;;;;;9.70;5.03;;;;;;;15.50;100.00;100943.22;690074;28;1294;-66
2022/10/30 00:16:57;;;;;;;10.80;4.83;;;;;;;15.47;100.00;100949.44;690382;28;1333;-66
2022/10/30 00:17:17;;;;;;;12.90;5.43;;;;;;;15.50;100.00;100957.25;691338;28;1245;-66
2022/10/30 00:17:38;;;;;;;8.87;5.53;;;;;;;15.52;100.00;100946.72;693138;28;1250;-67
2022/10/30 00:17:58;;;;;;;9.90;5.30;;;;;;;15.55;100.00;100951.03;689387;28;944;-67
2022/10/30 00:18:20;;;;;;;10.67;5.47;;;;;;;15.56;100.00;100943.13;689686;28;1404;-66
2022/10/30 00:18:43;;;;;;;11.65;5.78;;;;;;;15.56;100.00;100948.38;688443;28;4369;-67
2022/10/30 00:19:03;;;;;;;12.60;5.80;;;;;;;15.60;100.00;100954.44;689557;28;1330;-67
2022/10/30 00:19:24;;;;;;;12.87;6.40;;;;;;;15.58;100.00;100951.00;689162;28;1262;-66
2022/10/30 00:19:44;;;;;;;12.65;6.47;;;;;;;15.56;100.00;100944.88;689766;28;1971;-64
2022/10/30 00:20:06;;;;;;;13.70;6.37;;;;;;;15.53;100.00;100955.47;690448;28;1438;-66
2022/10/30 00:20:26;;;;;;;11.27;5.60;;;;;;;15.52;100.00;100945.84;690408;28;1268;-66
2022/10/30 00:20:47;;;;;;;10.25;5.43;;;;;;;15.53;100.00;100947.56;690651;28;1235;-66
2022/10/30 00:21:13;;;;;;;10.13;5.43;;;;;;;15.50;100.00;100945.88;692561;28;1250;-66
2022/10/30 00:21:33;;;;;;;12.80;5.72;;;;;;;15.49;100.00;100947.66;692170;28;1285;-66
2022/10/30 00:21:56;;;;;;;12.30;5.30;;;;;;;15.49;100.00;100947.66;695031;28;4341;-66
2022/10/30 00:22:16;;;;;;;12.07;5.30;;;;;;;15.50;100.00;100952.00;695102;28;1189;-66
2022/10/30 00:22:37;;;;;;;10.80;5.30;;;;;;;15.48;100.00;100945.03;695914;28;1309;-66
2022/10/30 00:22:57;;;;;;;9.87;5.50;;;;;;;15.51;100.00;100950.25;694964;28;1407;-66
2022/10/30 00:23:19;;;;;;;9.18;5.40;;;;;;;15.50;100.00;100957.25;692683;28;1258;-66
2022/10/30 00:23:45;;;;;;;11.68;5.68;;;;;;;15.53;100.00;100953.69;693421;28;1503;-66
2022/10/30 00:24:06;;;;;;;10.90;5.50;;;;;;;15.54;100.00;100950.16;693222;28;1265;-66
2022/10/30 00:24:28;;;;;;;10.65;5.60;;;;;;;15.53;100.00;100948.44;691793;28;1229;-66
2022/10/30 00:24:48;;;;;;;10.18;5.63;;;;;;;15.53;100.00;100950.22;687316;28;4384;-66
2022/10/30 00:25:09;;;;;;;9.48;5.65;;;;;;;15.52;100.00;100946.72;687036;28;1251;-65
2022/10/30 00:25:29;;;;;;;10.47;5.60;;;;;;;15.49;100.00;100941.50;688148;28;1135;-66
2022/10/30 00:25:49;;;;;;;11.43;5.68;;;;;;;15.50;100.00;100945.88;687207;28;1227;-66
2022/10/30 00:26:10;;;;;;;10.53;5.90;;;;;;;15.50;100.00;100948.50;690009;28;1207;-67
2022/10/30 00:26:32;;;;;;;10.00;5.90;;;;;;;15.48;100.00;100945.91;689370;28;1223;-67
2022/10/30 00:26:52;;;;;;;9.82;5.90;;;;;;;15.49;100.00;100949.38;692647;28;1036;-66
2022/10/30 00:27:13;;;;;;;10.83;5.97;;;;;;;15.49;100.00;100952.03;692905;28;1134;-66
2022/10/30 00:27:33;;;;;;;9.73;5.50;;;;;;;15.49;100.00;100954.66;692954;28;1353;-66
2022/10/30 00:27:53;;;;;;;11.20;5.40;;;;;;;15.49;100.00;100952.03;691581;28;4362;-65
2022/10/30 00:28:14;;;;;;;10.60;5.73;;;;;;;15.49;100.00;100959.94;690229;28;1326;-66
2022/10/30 00:28:34;;;;;;;11.18;5.78;;;;;;;15.47;100.00;100948.56;687540;28;1481;-66
2022/10/30 00:28:55;;;;;;;10.73;5.67;;;;;;;15.42;100.00;100940.75;684299;28;1280;-66
2022/10/30 00:29:15;;;;;;;12.32;5.57;;;;;;;15.45;100.00;100956.50;683608;28;1346;-66
2022/10/30 00:29:36;;;;;;;12.93;5.67;;;;;;;15.45;100.00;100943.34;686685;28;1270;-66
2022/10/30 00:29:56;;;;;;;12.97;5.63;;;;;;;15.45;100.00;100950.34;686940;28;1349;-66
2022/10/30 00:30:17;;;;;;;11.13;5.40;;;;;;;15.44;100.00;100949.50;689715;28;1348;-66
2022/10/30 00:30:38;;;;;;;12.00;5.50;;;;;;;15.45;100.00;100951.25;692656;28;4441;-66
2022/10/30 00:31:00;;;;;;;11.90;5.43;;;;;;;15.48;100.00;100955.59;693060;28;1314;-66
2022/10/30 00:31:21;;;;;;;10.02;5.13;;;;;;;15.50;100.00;100943.22;692612;28;1475;-66
2022/10/30 00:31:42;;;;;;;10.40;5.20;;;;;;;15.47;100.00;100951.19;692281;28;1467;-66
2022/10/30 00:32:02;;;;;;;10.87;5.57;;;;;;;15.46;100.00;100949.47;692900;28;1420;-66
2022/10/30 00:32:23;;;;;;;11.50;6.07;;;;;;;15.45;100.00;100953.00;692344;28;1274;-66
2022/10/30 00:32:43;;;;;;;11.30;5.73;;;;;;;15.42;100.00;100947.78;692479;28;1455;-67
2022/10/30 00:33:04;;;;;;;12.18;5.38;;;;;;;15.41;100.00;100946.03;693159;28;1524;-66
2022/10/30 00:33:25;;;;;;;11.25;5.82;;;;;;;15.40;100.00;100950.47;693422;28;1580;-67
2022/10/30 00:33:53;;;;;;;8.73;5.50;;;;;;;15.43;100.00;100944.25;694529;28;4491;-65
2022/10/30 00:34:13;;;;;;;10.95;5.80;;;;;;;15.45;100.00;100939.81;695578;28;2131;-66
2022/10/30 00:34:34;;;;;;;11.05;5.57;;;;;;;15.47;100.00;100946.78;695990;28;1493;-66
2022/10/30 00:34:54;;;;;;;11.18;5.43;;;;;;;15.48;100.00;100940.63;696070;28;1075;-66
2022/10/30 00:35:15;;;;;;;11.97;5.20;;;;;;;15.47;100.00;100953.84;695361;28;1264;-66
2022/10/30 00:35:35;;;;;;;11.40;5.45;;;;;;;15.45;100.00;100948.59;695381;28;1545;-66
2022/10/30 00:35:56;;;;;;;10.70;5.30;;;;;;;15.46;100.00;100941.56;695857;28;1269;-66
2022/10/30 00:36:17;;;;;;;8.82;5.57;;;;;;;15.48;100.00;100939.78;690227;28;1658;-66
2022/10/30 00:36:37;;;;;;;9.20;5.43;;;;;;;15.50;100.00;100943.22;686767;28;4638;-66
2022/10/30 00:36:57;;;;;;;9.98;5.28;;;;;;;15.49;100.00;100947.66;685814;28;1172;-66
2022/10/30 00:37:18;;;;;;;10.93;5.77;;;;;;;15.49;100.00;100947.66;684510;28;1350;-65
2022/10/30 00:37:39;;;;;;;10.35;5.50;;;;;;;15.47;100.00;100944.16;685211;28;1381;-67
2022/10/30 00:38:00;;;;;;;9.37;5.20;;;;;;;15.49;100.00;100949.38;685222;28;1010;-66
2022/10/30 00:38:20;;;;;;;9.73;5.30;;;;;;;15.47;100.00;100948.56;690301;28;1054;-66
2022/10/30 00:38:42;;;;;;;9.38;5.55;;;;;;;15.49;100.00;100946.75;693040;28;867;-66
2022/10/30 00:39:04;;;;;;;10.10;5.40;;;;;;;15.50;100.00;100952.00;693302;28;987;-66
2022/10/30 00:39:24;;;;;;;11.13;5.32;;;;;;;15.51;100.00;100960.78;692233;28;1034;-66
2022/10/30 00:39:45;;;;;;;12.27;5.75;;;;;;;15.52;100.00;100961.63;692634;28;4406;-66
2022/10/30 00:40:06;;;;;;;11.47;5.73;;;;;;;15.52;100.00;100964.28;690392;28;1659;-65
2022/10/30 00:40:26;;;;;;;10.55;5.75;;;;;;;15.52;100.00;100961.63;691038;28;1206;-65
2022/10/30 00:40:48;;;;;;;12.98;5.78;;;;;;;15.52;100.00;100967.78;686476;28;1459;-66
2022/10/30 00:41:17;;;;;;;10.53;5.43;;;;;;;15.54;100.00;100958.06;685550;28;1450;-65
2022/10/30 00:41:40;;;;;;;10.82;5.20;;;;;;;15.55;100.00;100959.81;685249;28;1456;-66
2022/10/30 00:42:00;;;;;;;11.40;5.50;;;;;;;15.53;100.00;100953.69;686762;28;861;-65
2022/10/30 00:42:21;;;;;;;14.45;5.55;;;;;;;15.52;100.00;100948.47;687493;28;1180;-65
2022/10/30 00:42:42;;;;;;;13.43;5.33;;;;;;;15.48;100.00;100948.53;690742;28;4363;-66
2022/10/30 00:43:02;;;;;;;11.55;5.32;;;;;;;15.49;100.00;100944.13;690504;28;1042;-65
2022/10/30 00:43:27;;;;;;;11.68;5.40;;;;;;;15.46;100.00;100945.03;688996;28;1219;-66
2022/10/30 00:43:48;;;;;;;10.70;6.22;;;;;;;15.45;100.00;100943.34;688224;28;1345;-65
2022/10/30 00:44:45;;;;;;;10.30;6.20;;;;;;;15.43;100.00;100937.22;687558;28;1055;-66
2022/10/30 00:45:06;;;;;;;11.38;6.05;;;;;;;15.41;100.00;100933.75;686974;28;900;-65
2022/10/30 00:45:26;;;;;;;10.35;5.50;;;;;;;15.44;100.00;100924.94;692561;28;1186;-66
2022/10/30 00:45:47;;;;;;;11.43;5.43;;;;;;;15.42;100.00;100921.44;691895;28;4379;-66
2022/10/30 00:46:31;;;;;;;11.33;5.90;;;;;;;15.40;100.00;100926.75;689520;28;1099;-66
2022/10/30 00:46:51;;;;;;;9.55;5.43;;;;;;;15.42;100.00;100938.09;689050;28;789;-66
2022/10/30 00:47:27;;;;;;;10.03;5.60;;;;;;;15.43;100.00;100946.91;690264;28;1008;-65
2022/10/30 00:47:58;;;;;;;10.40;5.68;;;;;;;15.46;100.00;100957.38;689247;28;1321;-66
2022/10/30 00:48:23;;;;;;;13.20;5.80;;;;;;;15.45;100.00;100950.34;689170;28;1233;-66
2022/10/30 00:48:51;;;;;;;11.05;5.70;;;;;;;15.37;100.00;100954.91;688311;28;4552;-66
2022/10/30 00:49:14;;;;;;;10.90;5.50;;;;;;;15.34;100.00;100953.22;690261;28;1398;-66
2022/10/30 00:49:37;;;;;;;9.38;5.57;;;;;;;15.38;100.00;100948.75;691129;28;849;-66
2022/10/30 00:50:03;;;;;;;10.75;5.45;;;;;;;15.40;100.00;100955.72;692960;28;1029;-66
2022/10/30 00:50:30;;;;;;;11.57;5.47;;;;;;;15.43;100.00;100953.03;692294;28;1176;-66
2022/10/30 00:50:53;;;;;;;12.90;5.57;;;;;;;15.45;100.00;100955.63;694719;28;1235;-66
2022/10/30 00:51:14;;;;;;;12.57;5.53;;;;;;;15.47;100.00;100961.75;695447;28;1505;-65
2022/10/30 00:51:37;;;;;;;11.10;5.53;;;;;;;15.48;100.00;100958.22;695181;28;1306;-66
2022/10/30 00:51:59;;;;;;;11.80;5.40;;;;;;;15.48;100.00;100961.72;692108;28;5016;-65
2022/10/30 00:52:23;;;;;;;11.23;5.05;;;;;;;15.48;100.00;100960.84;690212;28;1458;-66
2022/10/30 00:52:50;;;;;;;10.38;5.60;;;;;;;15.48;100.00;100958.22;685553;28;1370;-66
2022/10/30 00:53:16;;;;;;;11.43;5.38;;;;;;;15.42;100.00;100956.53;686168;28;1012;-66
2022/10/30 00:53:37;;;;;;;8.88;5.07;;;;;;;15.40;100.00;100954.88;686695;28;976;-65
2022/10/30 00:54:01;;;;;;;11.30;5.38;;;;;;;15.40;100.00;100952.25;690348;28;1256;-66
2022/10/30 00:54:22;;;;;;;14.00;5.70;;;;;;;15.39;100.00;100955.75;689118;28;2128;-66
2022/10/30 00:54:44;;;;;;;12.00;5.40;;;;;;;15.42;100.00;100958.31;685077;28;4524;-65
2022/10/30 00:55:12;;;;;;;10.38;5.72;;;;;;;15.39;100.00;100953.13;682037;28;1276;-67
2022/10/30 00:55:48;;;;;;;10.37;5.37;;;;;;;15.36;100.00;100953.19;682368;29;838;-66
2022/10/30 00:56:11;;;;;;;12.40;5.90;;;;;;;15.34;100.00;100953.22;685543;28;1463;-65
2022/10/30 00:56:31;;;;;;;11.43;5.70;;;;;;;15.32;100.00;100945.34;686400;28;1553;-66
2022/10/30 00:56:53;;;;;;;11.65;5.60;;;;;;;15.31;100.00;100948.88;688940;28;1106;-66
2022/10/30 00:57:14;;;;;;;10.73;5.60;;;;;;;15.30;100.00;100947.13;691688;28;1007;-65
2022/10/30 00:57:36;;;;;;;9.40;5.13;;;;;;;15.27;100.00;100947.22;690516;28;837;-66
2022/10/30 00:58:00;;;;;;;11.40;5.60;;;;;;;15.27;100.00;100947.22;690583;28;4665;-65
2022/10/30 00:58:26;;;;;;;10.45;5.38;;;;;;;15.24;100.00;100944.63;692947;28;1125;-65
2022/10/30 00:58:55;;;;;;;10.05;5.43;;;;;;;15.24;100.00;100947.25;688357;28;1485;-65
2022/10/30 00:59:24;;;;;;;10.13;5.50;;;;;;;15.23;100.00;100945.53;688471;28;1014;-66
2022/10/30 00:59:45;;;;;;;9.38;5.47;;;;;;;15.25;100.00;100943.72;689111;28;1985;-67
2022/10/30 01:00:11;;;;;;;9.00;5.32;;;;;;;15.29;100.00;100950.66;687263;28;1067;-66
2022/10/30 01:00:31;;;;;;;8.73;5.50;;;;;;;15.32;100.00;100945.34;688024;28;884;-66
2022/10/30 01:00:55;;;;;;;9.53;5.90;;;;;;;15.33;100.00;100948.84;690341;28;951;-66
2022/10/30 01:01:20;;;;;;;11.13;5.68;;;;;;;15.35;100.00;100943.53;686174;28;2252;-66
2022/10/30 01:01:43;;;;;;;9.52;5.18;;;;;;;15.37;100.00;100952.28;687583;28;1455;-66
2022/10/30 01:02:05;;;;;;;10.73;5.20;;;;;;;15.33;100.00;100944.44;684948;28;2258;-65
2022/10/30 01:02:26;;;;;;;11.75;5.47;;;;;;;15.31;100.00;100950.63;681204;28;1483;-65
2022/10/30 01:02:48;;;;;;;11.27;5.60;;;;;;;15.29;100.00;100945.41;677802;29;1391;-66
2022/10/30 01:03:09;;;;;;;9.80;5.28;;;;;;;15.27;100.00;100944.56;682092;28;1010;-65
2022/10/30 01:03:30;;;;;;;10.82;5.28;;;;;;;15.26;100.00;100945.47;682597;28;1143;-66
2022/10/30 01:03:56;;;;;;;11.25;5.07;;;;;;;15.30;100.00;100946.28;683245;28;1175;-65
2022/10/30 01:04:17;;;;;;;9.02;5.32;;;;;;;15.32;100.00;100940.06;683799;28;1297;-65
2022/10/30 01:04:40;;;;;;;9.85;5.30;;;;;;;15.34;100.00;100942.69;685700;28;904;-66
2022/10/30 01:05:02;;;;;;;8.98;4.95;;;;;;;15.33;100.00;100943.59;683612;28;1421;-66
2022/10/30 01:05:26;;;;;;;8.45;5.28;;;;;;;15.30;100.00;100941.03;679939;28;1212;-66
2022/10/30 01:05:52;;;;;;;9.73;4.90;;;;;;;15.30;100.00;100939.25;682133;29;829;-67
2022/10/30 01:06:15;;;;;;;10.63;5.22;;;;;;;15.28;100.00;100940.16;681835;28;1047;-64
2022/10/30 01:06:40;;;;;;;11.52;5.15;;;;;;;15.24;100.00;100939.34;681190;29;719;-65
2022/10/30 01:07:08;;;;;;;12.52;5.30;;;;;;;15.25;100.00;100949.00;684352;28;1079;-66
2022/10/30 01:07:29;;;;;;;12.32;5.65;;;;;;;15.25;100.00;100943.72;686844;28;1439;-66
2022/10/30 01:07:49;;;;;;;9.90;5.10;;;;;;;15.28;100.00;100942.78;686917;28;1402;-66
2022/10/30 01:08:10;;;;;;;9.87;5.60;;;;;;;15.28;100.00;100943.66;687046;28;1225;-66
2022/10/30 01:08:31;;;;;;;9.68;5.45;;;;;;;15.29;100.00;100942.75;683868;28;1379;-66
2022/10/30 01:08:53;;;;;;;11.90;5.43;;;;;;;15.27;100.00;100949.84;683288;28;1362;-66
2022/10/30 01:09:14;;;;;;;10.75;5.30;;;;;;;15.26;100.00;100950.72;684458;28;1004;-66
2022/10/30 01:09:36;;;;;;;8.88;5.28;;;;;;;15.27;100.00;100946.31;686618;28;1236;-65
2022/10/30 01:09:57;;;;;;;10.10;5.03;;;;;;;15.30;100.00;100947.13;687656;28;844;-66
2022/10/30 01:10:18;;;;;;;9.30;5.20;;;;;;;15.30;100.00;100947.13;682161;28;1361;-66
2022/10/30 01:10:39;;;;;;;8.95;5.18;;;;;;;15.27;100.00;100946.31;681366;28;1484;-65
2022/10/30 01:11:01;;;;;;;11.13;5.37;;;;;;;15.23;100.00;100942.91;682085;28;1429;-66
2022/10/30 01:11:22;;;;;;;10.98;5.10;;;;;;;15.20;100.00;100945.56;689288;28;1415;-66
2022/10/30 01:11:42;;;;;;;9.13;5.40;;;;;;;15.18;100.00;100941.25;689461;28;1393;-66
2022/10/30 01:12:03;;;;;;;9.32;5.30;;;;;;;15.16;100.00;100941.28;690518;28;864;-66
2022/10/30 01:12:23;;;;;;;10.70;5.28;;;;;;;15.15;100.00;100943.03;687560;28;1342;-66
2022/10/30 01:12:47;;;;;;;10.23;5.30;;;;;;;15.17;100.00;100940.38;687984;28;3901;-66
2022/10/30 01:13:09;;;;;;;11.98;5.70;;;;;;;15.22;100.00;100940.31;689007;28;1423;-66
2022/10/30 01:13:32;;;;;;;9.68;5.28;;;;;;;15.24;100.00;100943.75;688384;28;1465;-65
2022/10/30 01:13:57;;;;;;;10.30;5.20;;;;;;;15.27;100.00;100941.06;686794;28;1363;-65
2022/10/30 01:14:20;;;;;;;10.25;5.18;;;;;;;15.26;100.00;100936.72;687141;28;1181;-66
2022/10/30 01:14:46;;;;;;;11.05;5.53;;;;;;;15.24;100.00;100936.72;683070;28;1257;-65
2022/10/30 01:15:11;;;;;;;10.63;5.57;;;;;;;15.25;100.00;100938.44;683383;28;1805;-66
2022/10/30 01:15:43;;;;;;;9.95;5.25;;;;;;;15.27;100.00;100943.69;686883;28;828;-65
2022/10/30 01:16:18;;;;;;;8.30;5.13;;;;;;;15.30;100.00;100947.13;690095;28;1422;-65
2022/10/30 01:16:43;;;;;;;12.00;5.50;;;;;;;15.30;100.00;100944.50;688988;28;1363;-65
2022/10/30 01:17:27;;;;;;;10.73;5.20;;;;;;;15.34;100.00;100947.97;689627;28;1376;-66
2022/10/30 01:18:14;;;;;;;10.27;5.43;;;;;;;15.35;100.00;100944.41;685186;28;1311;-65
2022/10/30 01:18:45;;;;;;;10.32;5.35;;;;;;;15.35;100.00;100938.28;683600;28;1489;-66
2022/10/30 01:19:13;;;;;;;11.13;5.20;;;;;;;15.30;100.00;100947.13;682680;28;1244;-65
2022/10/30 01:19:47;;;;;;;10.98;5.40;;;;;;;15.28;100.00;100946.28;681996;28;1388;-65
2022/10/30 01:20:20;;;;;;;11.35;6.05;;;;;;;15.27;100.00;100946.31;687424;28;1053;-65
2022/10/30 01:21:16;;;;;;;10.60;5.32;;;;;;;15.27;100.00;100943.69;687151;28;1402;-66
2022/10/30 01:21:51;;;;;;;10.95;5.38;;;;;;;15.20;100.00;100940.31;691387;28;1138;-66
2022/10/30 01:22:39;;;;;;;10.25;5.60;;;;;;;15.13;100.00;100941.31;691730;28;991;-66
2022/10/30 01:23:18;;;;;;;9.43;5.38;;;;;;;15.14;100.00;100943.06;692776;28;1034;-65
2022/10/30 01:24:06;;;;;;;12.68;5.78;;;;;;;15.20;100.00;100944.72;691639;28;1479;-65
2022/10/30 01:24:26;;;;;;;11.40;5.63;;;;;;;15.24;100.00;100949.03;689292;28;935;-66
2022/10/30 01:24:52;;;;;;;11.10;5.72;;;;;;;15.25;100.00;100954.25;688358;28;1443;-65
2022/10/30 01:25:28;;;;;;;11.05;5.43;;;;;;;15.27;100.00;100951.59;689572;28;1019;-65
2022/10/30 01:26:24;;;;;;;12.00;5.53;;;;;;;15.26;100.00;100952.50;686086;28;1437;-65
2022/10/30 01:27:03;;;;;;;13.88;5.50;;;;;;;15.27;100.00;100949.84;688510;28;1336;-65
2022/10/30 01:27:48;;;;;;;11.05;6.00;;;;;;;15.24;100.00;100949.03;686207;28;1267;-66
2022/10/30 01:28:18;;;;;;;13.77;6.03;;;;;;;15.18;100.00;100952.66;691677;28;1267;-66
2022/10/30 01:29:03;;;;;;;10.73;5.53;;;;;;;15.10;100.00;100952.78;690448;28;904;-66
2022/10/30 01:29:40;;;;;;;11.73;5.97;;;;;;;15.09;100.00;100945.81;692228;28;1231;-65
2022/10/30 01:30:15;;;;;;;9.25;5.35;;;;;;;15.10;100.00;100951.91;691607;28;1525;-65
2022/10/30 01:30:47;;;;;;;11.07;5.50;;;;;;;15.07;100.00;100955.47;692331;28;2235;-66
2022/10/30 01:31:13;;;;;;;10.45;5.28;;;;;;;15.03;100.00;100948.53;689042;28;1491;-66
2022/10/30 01:31:48;;;;;;;10.52;5.40;;;;;;;14.96;100.00;100950.41;685638;28;876;-66
2022/10/30 01:32:36;;;;;;;9.27;5.75;;;;;;;15.01;100.00;100946.81;687187;28;1316;-66
2022/10/30 01:33:27;;;;;;;10.93;5.53;;;;;;;15.02;100.00;100956.47;687249;28;829;-65
2022/10/30 01:34:00;;;;;;;11.13;5.85;;;;;;;15.00;100.00;100953.88;689945;28;1396;-66
2022/10/30 01:34:51;;;;;;;10.63;5.80;;;;;;;14.96;100.00;100949.56;689715;28;1311;-65
2022/10/30 01:35:39;;;;;;;12.38;6.00;;;;;;;14.86;100.00;100943.59;686803;28;1506;-65
2022/10/30 01:36:25;;;;;;;11.35;5.60;;;;;;;14.83;100.00;100943.66;687333;28;833;-66
2022/10/30 01:36:51;;;;;;;11.30;5.80;;;;;;;14.80;100.00;100941.06;689072;28;1407;-66
2022/10/30 01:37:41;;;;;;;11.27;5.60;;;;;;;14.78;100.00;100943.72;689971;28;1391;-65
2022/10/30 01:38:11;;;;;;;10.07;5.47;;;;;;;14.73;100.00;100945.59;689690;28;2251;-66
2022/10/30 01:38:57;;;;;;;12.13;5.95;;;;;;;14.71;100.00;100942.09;687863;28;909;-66
2022/10/30 01:39:22;;;;;;;9.65;6.03;;;;;;;14.72;100.00;100942.97;688627;28;1487;-65
2022/10/30 01:39:42;;;;;;;10.68;6.07;;;;;;;14.69;100.00;100940.38;689029;28;1965;-66
2022/10/30 01:40:13;;;;;;;9.93;5.40;;;;;;;14.70;100.00;100940.34;692156;28;853;-66
2022/10/30 01:40:35;;;;;;;10.07;5.85;;;;;;;14.66;100.00;100948.31;690861;28;1393;-66
2022/10/30 01:40:56;;;;;;;9.93;5.80;;;;;;;14.62;100.00;100942.22;691387;28;1576;-65
2022/10/30 01:41:16;;;;;;;11.20;5.77;;;;;;;14.64;100.00;100943.09;690313;28;1338;-65
2022/10/30 01:41:38;;;;;;;11.88;5.93;;;;;;;14.63;100.00;100942.25;689703;28;1241;-66
2022/10/30 01:41:59;;;;;;;11.93;5.77;;;;;;;14.63;100.00;100942.25;684135;28;1339;-66
2022/10/30 01:42:50;;;;;;;12.95;5.82;;;;;;;14.58;100.00;100949.31;684117;28;1373;-66
2022/10/30 01:43:14;;;;;;;10.90;5.82;;;;;;;14.67;100.00;100939.56;683802;28;1445;-66
2022/10/30 01:43:36;;;;;;;10.45;5.60;;;;;;;14.75;100.00;100949.03;683546;28;862;-65
2022/10/30 01:44:02;;;;;;;11.57;5.72;;;;;;;14.81;100.00;100948.06;689205;28;1529;-66
2022/10/30 01:44:27;;;;;;;12.73;5.82;;;;;;;14.84;100.00;100942.72;689770;28;1434;-65
2022/10/30 01:44:47;;;;;;;12.77;5.93;;;;;;;14.88;100.00;100948.81;690368;28;1026;-66
2022/10/30 01:45:13;;;;;;;11.60;5.60;;;;;;;14.91;100.00;100946.13;687335;28;1534;-65
2022/10/30 01:45:59;;;;;;;11.50;5.63;;;;;;;14.94;100.00;100957.47;687490;28;916;-66
2022/10/30 01:46:48;;;;;;;11.90;5.60;;;;;;;14.98;100.00;100956.53;694342;28;1374;-65
2022/10/30 01:47:19;;;;;;;10.35;5.63;;;;;;;14.96;100.00;100950.41;684333;28;1389;-65
2022/10/30 01:47:54;;;;;;;12.23;5.80;;;;;;;14.84;100.00;100955.88;684221;28;1382;-66
2022/10/30 01:48:53;;;;;;;11.18;5.85;;;;;;;14.73;100.00;100957.84;687182;28;1305;-65
2022/10/30 01:49:44;;;;;;;11.70;6.05;;;;;;;14.68;100.00;100951.81;686831;28;1245;-65
2022/10/30 01:50:05;;;;;;;9.50;5.68;;;;;;;14.64;100.00;100953.63;688650;28;1264;-65
2022/10/30 01:50:44;;;;;;;11.43;5.57;;;;;;;14.67;100.00;100947.44;687241;28;1229;-65
2022/10/30 01:51:08;;;;;;;10.45;5.28;;;;;;;14.75;100.00;100948.19;688555;28;1422;-66
2022/10/30 01:51:41;;;;;;;10.45;5.28;;;;;;;14.75;100.00;100949.03;686934;28;1467;-66
2022/10/30 01:52:10;;;;;;;10.80;5.80;;;;;;;14.72;100.00;100953.50;686816;28;1392;-65
2022/10/30 01:52:59;;;;;;;11.65;5.72;;;;;;;14.71;100.00;100946.50;687371;28;1672;-66
2022/10/30 01:53:36;;;;;;;11.45;5.95;;;;;;;14.70;100.00;100944.75;684042;28;1183;-66
2022/10/30 01:54:15;;;;;;;9.68;5.55;;;;;;;14.62;100.00;100943.13;687602;28;1096;-65
2022/10/30 01:54:38;;;;;;;9.52;5.55;;;;;;;14.63;100.00;100939.59;692951;28;1426;-66
2022/10/30 01:55:12;;;;;;;9.48;5.75;;;;;;;14.60;100.00;100944.88;688280;28;1216;-66
2022/10/30 01:55:59;;;;;;;11.85;5.55;;;;;;;14.61;100.00;100951.03;686301;28;1357;-66
2022/10/30 01:56:42;;;;;;;10.27;5.65;;;;;;;14.57;100.00;100949.34;688902;28;1607;-66
2022/10/30 01:57:04;;;;;;;12.52;6.18;;;;;;;14.58;100.00;100953.69;685159;28;1137;-65
2022/10/30 01:57:35;;;;;;;11.75;6.03;;;;;;;14.58;100.00;100944.03;684102;28;1480;-66
2022/10/30 01:58:04;;;;;;;12.38;5.55;;;;;;;14.58;100.00;100949.31;683405;28;1397;-65
2022/10/30 01:58:27;;;;;;;9.98;5.45;;;;;;;14.55;100.00;100952.00;683787;28;1459;-65
2022/10/30 01:59:05;;;;;;;10.20;5.43;;;;;;;14.64;100.00;100956.25;684160;28;880;-67
2022/10/30 01:59:33;;;;;;;12.18;5.38;;;;;;;14.71;100.00;100952.63;687546;28;1233;-65
2022/10/30 02:00:00;;;;;;;11.20;5.60;;;;;;;14.68;100.00;100957.94;690031;28;1969;-66
2022/10/30 02:00:21;;;;;;;12.07;5.90;;;;;;;14.59;100.00;100951.03;686924;28;1339;-65